sensor_id;sensor_type;location;lat;lon;timestamp;pressure;altitude;pressure_sealevel;temperature;humidity
39891;BME280;25564;53.312;9.790;2022-12-18T00:02:17;102233.03;;;-6.38;88.91
39891;BME280;25564;53.312;9.790;2022-12-18T00:04:48;102213.25;;;-6.49;89.20
39891;BME280;25564;53.312;9.790;2022-12-18T00:07:20;102232.78;;;-6.41;88.64
39891;BME280;25564;53.312;9.790;2022-12-18T00:09:51;102234.59;;;-6.40;88.63
39891;BME280;25564;53.312;9.790;2022-12-18T00:12:22;102221.53;;;-6.53;88.79
39891;BME280;25564;53.312;9.790;2022-12-18T00:14:53;102246.38;;;-6.44;89.19
39891;BME280;25564;53.312;9.790;2022-12-18T00:17:25;102236.91;;;-6.55;89.10
39891;BME280;25564;53.312;9.790;2022-12-18T00:19:56;102245.13;;;-6.49;88.91
39891;BME280;25564;53.312;9.790;2022-12-18T00:22:27;102243.31;;;-6.50;88.58
39891;BME280;25564;53.312;9.790;2022-12-18T00:24:59;102245.91;;;-6.50;88.59
39891;BME280;25564;53.312;9.790;2022-12-18T00:27:30;102238.59;;;-6.55;88.62
39891;BME280;25564;53.312;9.790;2022-12-18T00:30:02;102258.81;;;-6.50;88.80
39891;BME280;25564;53.312;9.790;2022-12-18T00:32:33;102262.19;;;-6.51;88.95
39891;BME280;25564;53.312;9.790;2022-12-18T00:35:05;102245.53;;;-6.66;89.04
39891;BME280;25564;53.312;9.790;2022-12-18T00:37:37;102263.09;;;-6.50;89.19
39891;BME280;25564;53.312;9.790;2022-12-18T00:40:09;102245.09;;;-6.61;88.58
39891;BME280;25564;53.312;9.790;2022-12-18T00:42:40;102266.44;;;-6.51;89.15
39891;BME280;25564;53.312;9.790;2022-12-18T00:45:30;102261.16;;;-6.53;88.95
39891;BME280;25564;53.312;9.790;2022-12-18T00:48:01;102257.47;;;-6.56;88.94
39891;BME280;25564;53.312;9.790;2022-12-18T00:50:33;102254.88;;;-6.56;89.05
39891;BME280;25564;53.312;9.790;2022-12-18T00:53:05;102254.66;;;-6.60;88.95
39891;BME280;25564;53.312;9.790;2022-12-18T00:55:40;102246.88;;;-6.71;88.32
39891;BME280;25564;53.312;9.790;2022-12-18T00:58:14;102272.47;;;-6.63;88.91
39891;BME280;25564;53.312;9.790;2022-12-18T01:00:45;102276.50;;;-6.66;88.85
39891;BME280;25564;53.312;9.790;2022-12-18T01:03:17;102270.22;;;-6.70;88.88
39891;BME280;25564;53.312;9.790;2022-12-18T01:05:48;102276.28;;;-6.69;88.91
39891;BME280;25564;53.312;9.790;2022-12-18T01:08:20;102270.75;;;-6.74;88.07
39891;BME280;25564;53.312;9.790;2022-12-18T01:10:51;102268.97;;;-6.75;88.25
39891;BME280;25564;53.312;9.790;2022-12-18T01:13:22;102266.63;;;-6.72;88.47
39891;BME280;25564;53.312;9.790;2022-12-18T01:15:54;102264.81;;;-6.73;88.83
39891;BME280;25564;53.312;9.790;2022-12-18T01:18:25;102237.41;;;-6.82;88.62
39891;BME280;25564;53.312;9.790;2022-12-18T01:20:56;102240.88;;;-6.82;88.70
39891;BME280;25564;53.312;9.790;2022-12-18T01:23:28;102251.13;;;-6.72;88.44
39891;BME280;25564;53.312;9.790;2022-12-18T01:26:04;102256.28;;;-6.72;88.58
39891;BME280;25564;53.312;9.790;2022-12-18T01:28:36;102262.34;;;-6.71;88.81
39891;BME280;25564;53.312;9.790;2022-12-18T01:31:11;102257.63;;;-6.77;88.66
39891;BME280;25564;53.312;9.790;2022-12-18T01:33:43;102257.84;;;-6.74;88.13
39891;BME280;25564;53.312;9.790;2022-12-18T01:36:21;102260.44;;;-6.74;88.34
39891;BME280;25564;53.312;9.790;2022-12-18T01:38:53;102251.56;;;-6.77;88.79
39891;BME280;25564;53.312;9.790;2022-12-18T01:41:27;102256.97;;;-6.74;88.67
39891;BME280;25564;53.312;9.790;2022-12-18T01:50:02;102263.56;;;-6.78;88.07
39891;BME280;25564;53.312;9.790;2022-12-18T01:52:34;102283.19;;;-6.80;88.29
39891;BME280;25564;53.312;9.790;2022-12-18T01:55:07;102287.34;;;-6.82;88.43
39891;BME280;25564;53.312;9.790;2022-12-18T01:57:39;102289.91;;;-6.82;88.55
39891;BME280;25564;53.312;9.790;2022-12-18T02:00:15;102284.53;;;-6.85;88.67
39891;BME280;25564;53.312;9.790;2022-12-18T02:02:46;102267.84;;;-7.00;88.10
39891;BME280;25564;53.312;9.790;2022-12-18T02:14:09;102285.72;;;-6.92;87.81
39891;BME280;25564;53.312;9.790;2022-12-18T02:16:51;102295.03;;;-6.94;88.21
39891;BME280;25564;53.312;9.790;2022-12-18T02:25:26;102288.06;;;-6.95;88.58
39891;BME280;25564;53.312;9.790;2022-12-18T02:28:04;102263.13;;;-7.06;88.06
39891;BME280;25564;53.312;9.790;2022-12-18T02:30:38;102267.63;;;-7.03;88.16
39891;BME280;25564;53.312;9.790;2022-12-18T02:33:11;102277.41;;;-6.99;88.38
39891;BME280;25564;53.312;9.790;2022-12-18T02:35:45;102273.78;;;-7.01;88.13
39891;BME280;25564;53.312;9.790;2022-12-18T02:38:17;102282.56;;;-6.99;88.31
39891;BME280;25564;53.312;9.790;2022-12-18T02:40:49;102294.66;;;-6.98;87.74
39891;BME280;25564;53.312;9.790;2022-12-18T02:43:22;102284.91;;;-7.02;88.05
39891;BME280;25564;53.312;9.790;2022-12-18T02:45:58;102281.78;;;-6.98;88.35
39891;BME280;25564;53.312;9.790;2022-12-18T02:48:34;102281.00;;;-6.97;87.84
39891;BME280;25564;53.312;9.790;2022-12-18T02:51:18;102270.44;;;-7.00;88.32
39891;BME280;25564;53.312;9.790;2022-12-18T02:54:10;102254.38;;;-7.08;88.02
39891;BME280;25564;53.312;9.790;2022-12-18T02:56:50;102269.19;;;-7.05;88.13
39891;BME280;25564;53.312;9.790;2022-12-18T02:59:31;102286.28;;;-6.96;88.32
39891;BME280;25564;53.312;9.790;2022-12-18T03:02:25;102274.56;;;-7.02;88.34
39891;BME280;25564;53.312;9.790;2022-12-18T03:05:25;102280.88;;;-6.99;88.29
39891;BME280;25564;53.312;9.790;2022-12-18T03:08:04;102268.69;;;-7.11;88.16
39891;BME280;25564;53.312;9.790;2022-12-18T03:10:53;102290.72;;;-7.05;88.06
39891;BME280;25564;53.312;9.790;2022-12-18T03:13:49;102296.28;;;-7.10;87.88
39891;BME280;25564;53.312;9.790;2022-12-18T03:16:25;102287.19;;;-7.17;87.63
39891;BME280;25564;53.312;9.790;2022-12-18T03:19:09;102291.56;;;-7.16;87.90
39891;BME280;25564;53.312;9.790;2022-12-18T03:21:47;102289.75;;;-7.17;87.65
39891;BME280;25564;53.312;9.790;2022-12-18T03:24:21;102290.41;;;-7.19;87.91
39891;BME280;25564;53.312;9.790;2022-12-18T03:26:58;102273.00;;;-7.34;87.82
39891;BME280;25564;53.312;9.790;2022-12-18T03:29:45;102284.44;;;-7.30;87.90
39891;BME280;25564;53.312;9.790;2022-12-18T03:32:25;102291.50;;;-7.28;87.58
39891;BME280;25564;53.312;9.790;2022-12-18T03:34:59;102263.63;;;-7.43;87.67
39891;BME280;25564;53.312;9.790;2022-12-18T03:37:34;102298.34;;;-7.28;87.89
39891;BME280;25564;53.312;9.790;2022-12-18T03:40:06;102287.97;;;-7.40;87.53
39891;BME280;25564;53.312;9.790;2022-12-18T03:42:47;102309.44;;;-7.29;87.41
39891;BME280;25564;53.312;9.790;2022-12-18T03:45:25;102309.22;;;-7.32;87.75
39891;BME280;25564;53.312;9.790;2022-12-18T03:48:07;102299.31;;;-7.38;87.72
39891;BME280;25564;53.312;9.790;2022-12-18T03:50:49;102316.81;;;-7.34;87.55
39891;BME280;25564;53.312;9.790;2022-12-18T03:54:08;102313.34;;;-7.34;87.50
39891;BME280;25564;53.312;9.790;2022-12-18T03:56:21;102293.78;;;-7.42;87.49
39891;BME280;25564;53.312;9.790;2022-12-18T03:58:55;102308.19;;;-7.34;87.50
39891;BME280;25564;53.312;9.790;2022-12-18T04:01:34;102294.88;;;-7.29;88.07
39891;BME280;25564;53.312;9.790;2022-12-18T04:04:08;102295.22;;;-7.24;87.30
39891;BME280;25564;53.312;9.790;2022-12-18T04:06:42;102297.13;;;-7.21;87.72
39891;BME280;25564;53.312;9.790;2022-12-18T04:09:14;102314.16;;;-7.23;87.86
39891;BME280;25564;53.312;9.790;2022-12-18T04:11:46;102279.69;;;-7.36;88.01
39891;BME280;25564;53.312;9.790;2022-12-18T04:14:18;102307.69;;;-7.18;87.86
39891;BME280;25564;53.312;9.790;2022-12-18T04:16:49;102305.88;;;-7.19;87.63
39891;BME280;25564;53.312;9.790;2022-12-18T04:19:20;102292.38;;;-7.27;87.71
39891;BME280;25564;53.312;9.790;2022-12-18T04:21:52;102310.25;;;-7.18;87.45
39891;BME280;25564;53.312;9.790;2022-12-18T04:24:23;102297.38;;;-7.18;87.42
39891;BME280;25564;53.312;9.790;2022-12-18T04:26:54;102300.72;;;-7.19;87.63
39891;BME280;25564;53.312;9.790;2022-12-18T04:29:25;102296.34;;;-7.20;87.93
39891;BME280;25564;53.312;9.790;2022-12-18T04:31:57;102267.59;;;-7.37;87.94
39891;BME280;25564;53.312;9.790;2022-12-18T04:34:28;102292.50;;;-7.26;87.59
39891;BME280;25564;53.312;9.790;2022-12-18T04:36:59;102285.66;;;-7.25;87.52
39891;BME280;25564;53.312;9.790;2022-12-18T04:39:31;102281.28;;;-7.26;87.88
39891;BME280;25564;53.312;9.790;2022-12-18T04:42:02;102295.09;;;-7.26;87.38
39891;BME280;25564;53.312;9.790;2022-12-18T04:44:33;102293.28;;;-7.27;87.45
39891;BME280;25564;53.312;9.790;2022-12-18T04:47:05;102294.31;;;-7.25;87.37
39891;BME280;25564;53.312;9.790;2022-12-18T04:49:36;102286.56;;;-7.25;87.59
39891;BME280;25564;53.312;9.790;2022-12-18T04:52:07;102270.66;;;-7.31;88.12
39891;BME280;25564;53.312;9.790;2022-12-18T04:54:39;102257.16;;;-7.38;87.81
39891;BME280;25564;53.312;9.790;2022-12-18T04:57:10;102292.75;;;-7.22;87.36
39891;BME280;25564;53.312;9.790;2022-12-18T04:59:41;102290.06;;;-7.24;87.43
39891;BME280;25564;53.312;9.790;2022-12-18T05:02:13;102255.53;;;-7.48;88.03
39891;BME280;25564;53.312;9.790;2022-12-18T05:04:44;102271.84;;;-7.37;87.41
39891;BME280;25564;53.312;9.790;2022-12-18T05:07:15;102271.06;;;-7.36;87.57
39891;BME280;25564;53.312;9.790;2022-12-18T05:09:47;102295.44;;;-7.21;87.54
39891;BME280;25564;53.312;9.790;2022-12-18T05:12:18;102291.50;;;-7.28;87.64
39891;BME280;25564;53.312;9.790;2022-12-18T05:14:49;102319.25;;;-7.13;87.61
39891;BME280;25564;53.312;9.790;2022-12-18T05:17:21;102303.66;;;-7.15;87.55
39891;BME280;25564;53.312;9.790;2022-12-18T05:19:52;102283.44;;;-7.20;87.99
39891;BME280;25564;53.312;9.790;2022-12-18T05:22:23;102311.47;;;-7.03;87.79
39891;BME280;25564;53.312;9.790;2022-12-18T05:24:55;102317.13;;;-6.97;87.70
39891;BME280;25564;53.312;9.790;2022-12-18T05:27:27;102319.03;;;-6.95;88.18
39891;BME280;25564;53.312;9.790;2022-12-18T05:29:58;102318.13;;;-6.95;88.23
39891;BME280;25564;53.312;9.790;2022-12-18T05:32:29;102306.84;;;-7.07;87.99
39891;BME280;25564;53.312;9.790;2022-12-18T05:35:01;102330.13;;;-6.96;88.04
39891;BME280;25564;53.312;9.790;2022-12-18T05:37:32;102313.69;;;-7.08;87.81
39891;BME280;25564;53.312;9.790;2022-12-18T05:40:10;102306.63;;;-7.10;87.33
39891;BME280;25564;53.312;9.790;2022-12-18T05:42:42;102320.66;;;-7.07;87.95
39891;BME280;25564;53.312;9.790;2022-12-18T05:45:13;102342.38;;;-6.93;87.12
39891;BME280;25564;53.312;9.790;2022-12-18T05:47:44;102343.94;;;-6.95;87.03
39891;BME280;25564;53.312;9.790;2022-12-18T05:50:15;102349.09;;;-6.95;87.65
39891;BME280;25564;53.312;9.790;2022-12-18T05:52:47;102352.44;;;-6.96;87.12
39891;BME280;25564;53.312;9.790;2022-12-18T05:55:18;102361.22;;;-6.94;87.51
39891;BME280;25564;53.312;9.790;2022-12-18T05:57:49;102368.84;;;-6.96;87.58
39891;BME280;25564;53.312;9.790;2022-12-18T06:00:21;102354.00;;;-6.98;88.19
39891;BME280;25564;53.312;9.790;2022-12-18T06:02:52;102351.31;;;-7.00;88.00
39891;BME280;25564;53.312;9.790;2022-12-18T06:05:23;102353.78;;;-7.01;88.28
39891;BME280;25564;53.312;9.790;2022-12-18T06:07:55;102357.13;;;-7.02;87.23
39891;BME280;25564;53.312;9.790;2022-12-18T06:10:26;102356.09;;;-7.04;87.80
39891;BME280;25564;53.312;9.790;2022-12-18T06:12:58;102357.78;;;-7.05;87.99
39891;BME280;25564;53.312;9.790;2022-12-18T06:15:30;102360.38;;;-7.05;87.47
39891;BME280;25564;53.312;9.790;2022-12-18T06:18:01;102368.09;;;-7.05;87.75
39891;BME280;25564;53.312;9.790;2022-12-18T06:20:33;102356.88;;;-7.05;87.78
39891;BME280;25564;53.312;9.790;2022-12-18T06:23:05;102339.13;;;-7.12;87.85
39891;BME280;25564;53.312;9.790;2022-12-18T06:25:38;102367.19;;;-7.05;87.56
39891;BME280;25564;53.312;9.790;2022-12-18T06:28:09;102354.06;;;-7.08;87.94
39891;BME280;25564;53.312;9.790;2022-12-18T06:30:43;102352.13;;;-7.11;87.89
39891;BME280;25564;53.312;9.790;2022-12-18T06:33:15;102375.84;;;-7.05;88.02
39891;BME280;25564;53.312;9.790;2022-12-18T06:35:47;102352.56;;;-7.16;87.62
39891;BME280;25564;53.312;9.790;2022-12-18T06:38:18;102375.97;;;-7.03;87.61
39891;BME280;25564;53.312;9.790;2022-12-18T06:40:49;102376.88;;;-7.03;88.12
39891;BME280;25564;53.312;9.790;2022-12-18T06:43:20;102375.97;;;-7.03;87.52
39891;BME280;25564;53.312;9.790;2022-12-18T06:45:59;102375.97;;;-7.03;87.86
39891;BME280;25564;53.312;9.790;2022-12-18T06:48:31;102352.03;;;-7.12;87.74
39891;BME280;25564;53.312;9.790;2022-12-18T06:51:03;102371.94;;;-7.00;87.50
39891;BME280;25564;53.312;9.790;2022-12-18T06:53:35;102366.13;;;-6.97;87.52
39891;BME280;25564;53.312;9.790;2022-12-18T06:56:07;102373.88;;;-6.97;87.88
39891;BME280;25564;53.312;9.790;2022-12-18T06:58:41;102365.47;;;-6.95;88.03
39891;BME280;25564;53.312;9.790;2022-12-18T07:01:13;102367.94;;;-6.96;87.90
39891;BME280;25564;53.312;9.790;2022-12-18T07:03:44;102372.03;;;-6.88;88.30
39891;BME280;25564;53.312;9.790;2022-12-18T07:06:18;102380.13;;;-6.83;87.69
39891;BME280;25564;53.312;9.790;2022-12-18T07:08:51;102362.34;;;-6.90;88.11
39891;BME280;25564;53.312;9.790;2022-12-18T07:11:22;102359.91;;;-6.89;87.95
39891;BME280;25564;53.312;9.790;2022-12-18T07:13:54;102381.50;;;-6.77;87.81
39891;BME280;25564;53.312;9.790;2022-12-18T07:16:25;102367.63;;;-6.89;87.73
39891;BME280;25564;53.312;9.790;2022-12-18T07:18:57;102390.03;;;-6.78;87.71
39891;BME280;25564;53.312;9.790;2022-12-18T07:21:28;102395.31;;;-6.76;87.41
39891;BME280;25564;53.312;9.790;2022-12-18T07:24:00;102393.75;;;-6.74;88.22
39891;BME280;25564;53.312;9.790;2022-12-18T07:26:31;102358.09;;;-6.90;88.10
39891;BME280;25564;53.312;9.790;2022-12-18T07:29:02;102398.25;;;-6.72;87.60
39891;BME280;25564;53.312;9.790;2022-12-18T07:31:33;102394.88;;;-6.71;87.95
39891;BME280;25564;53.312;9.790;2022-12-18T07:34:05;102400.19;;;-6.69;88.04
39891;BME280;25564;53.312;9.790;2022-12-18T07:36:36;102393.75;;;-6.74;88.09
39891;BME280;25564;53.312;9.790;2022-12-18T07:39:07;102403.91;;;-6.66;87.65
39891;BME280;25564;53.312;9.790;2022-12-18T07:41:39;102399.50;;;-6.67;87.69
39891;BME280;25564;53.312;9.790;2022-12-18T07:44:17;102407.84;;;-6.59;88.61
39891;BME280;25564;53.312;9.790;2022-12-18T07:46:48;102415.97;;;-6.54;87.95
39891;BME280;25564;53.312;9.790;2022-12-18T07:49:19;102395.06;;;-6.57;88.30
39891;BME280;25564;53.312;9.790;2022-12-18T07:51:51;102407.91;;;-6.47;87.64
39891;BME280;25564;53.312;9.790;2022-12-18T07:54:24;102409.94;;;-6.43;88.54
39891;BME280;25564;53.312;9.790;2022-12-18T07:56:55;102390.38;;;-6.51;88.26
39891;BME280;25564;53.312;9.790;2022-12-18T07:59:27;102407.41;;;-6.32;88.79
39891;BME280;25564;53.312;9.790;2022-12-18T08:01:58;102400.81;;;-6.28;88.03
39891;BME280;25564;53.312;9.790;2022-12-18T08:04:30;102394.28;;;-6.23;88.36
39891;BME280;25564;53.312;9.790;2022-12-18T08:07:01;102390.34;;;-6.18;87.93
39891;BME280;25564;53.312;9.790;2022-12-18T08:09:32;102378.81;;;-6.11;88.34
39891;BME280;25564;53.312;9.790;2022-12-18T08:12:04;102379.38;;;-6.04;88.08
39891;BME280;25564;53.312;9.790;2022-12-18T08:14:35;102359.81;;;-6.12;88.32
39891;BME280;25564;53.312;9.790;2022-12-18T08:17:07;102332.28;;;-6.23;88.10
39891;BME280;25564;53.312;9.790;2022-12-18T08:19:38;102388.25;;;-5.88;88.55
39891;BME280;25564;53.312;9.790;2022-12-18T08:22:09;102380.06;;;-5.83;88.34
39891;BME280;25564;53.312;9.790;2022-12-18T08:24:41;102363.88;;;-5.80;89.03
39891;BME280;25564;53.312;9.790;2022-12-18T08:27:12;102376.50;;;-5.73;88.62
39891;BME280;25564;53.312;9.790;2022-12-18T08:29:59;102353.22;;;-5.85;88.12
39891;BME280;25564;53.312;9.790;2022-12-18T08:32:32;102358.94;;;-5.77;88.60
39891;BME280;25564;53.312;9.790;2022-12-18T08:35:04;102368.06;;;-5.59;88.41
39891;BME280;25564;53.312;9.790;2022-12-18T08:37:35;102365.03;;;-5.53;89.06
39891;BME280;25564;53.312;9.790;2022-12-18T08:40:07;102362.00;;;-5.48;88.50
39891;BME280;25564;53.312;9.790;2022-12-18T08:42:39;102364.03;;;-5.44;88.83
39891;BME280;25564;53.312;9.790;2022-12-18T08:45:29;102350.63;;;-5.50;88.60
39891;BME280;25564;53.312;9.790;2022-12-18T08:48:00;102370.09;;;-5.32;88.89
39891;BME280;25564;53.312;9.790;2022-12-18T08:50:32;102356.13;;;-5.34;88.52
39891;BME280;25564;53.312;9.790;2022-12-18T08:53:03;102363.44;;;-5.28;88.75
39891;BME280;25564;53.312;9.790;2022-12-18T08:55:34;102377.13;;;-5.17;88.94
39891;BME280;25564;53.312;9.790;2022-12-18T08:58:06;102385.22;;;-5.13;88.56
39891;BME280;25564;53.312;9.790;2022-12-18T09:00:37;102375.19;;;-5.08;89.11
39891;BME280;25564;53.312;9.790;2022-12-18T09:03:16;102388.56;;;-5.02;89.15
39891;BME280;25564;53.312;9.790;2022-12-18T09:05:48;102380.91;;;-5.01;89.36
39891;BME280;25564;53.312;9.790;2022-12-18T09:08:19;102364.63;;;-5.11;89.52
39891;BME280;25564;53.312;9.790;2022-12-18T09:10:51;102377.66;;;-4.98;89.59
39891;BME280;25564;53.312;9.790;2022-12-18T09:13:22;102390.91;;;-4.82;88.71
39891;BME280;25564;53.312;9.790;2022-12-18T09:15:54;102384.34;;;-4.77;89.16
39891;BME280;25564;53.312;9.790;2022-12-18T09:18:26;102386.69;;;-4.68;89.40
39891;BME280;25564;53.312;9.790;2022-12-18T09:20:57;102371.69;;;-4.61;89.15
39891;BME280;25564;53.312;9.790;2022-12-18T09:23:29;102372.44;;;-4.50;89.33
39891;BME280;25564;53.312;9.790;2022-12-18T09:26:00;102381.75;;;-4.40;89.79
39891;BME280;25564;53.312;9.790;2022-12-18T09:28:31;102371.28;;;-4.42;89.15
39891;BME280;25564;53.312;9.790;2022-12-18T09:31:05;102394.78;;;-4.27;89.34
39891;BME280;25564;53.312;9.790;2022-12-18T09:33:37;102392.69;;;-4.19;89.26
39891;BME280;25564;53.312;9.790;2022-12-18T09:36:11;102380.91;;;-4.14;89.75
39891;BME280;25564;53.312;9.790;2022-12-18T09:38:43;102390.00;;;-4.08;89.20
39891;BME280;25564;53.312;9.790;2022-12-18T09:41:39;102381.06;;;-4.00;89.60
39891;BME280;25564;53.312;9.790;2022-12-18T09:44:14;102389.38;;;-3.92;89.30
39891;BME280;25564;53.312;9.790;2022-12-18T09:46:52;102359.31;;;-4.02;89.58
39891;BME280;25564;53.312;9.790;2022-12-18T09:49:27;102384.09;;;-3.80;89.50
39891;BME280;25564;53.312;9.790;2022-12-18T09:52:04;102378.53;;;-3.73;89.50
39891;BME280;25564;53.312;9.790;2022-12-18T09:54:40;102382.53;;;-3.65;89.45
39891;BME280;25564;53.312;9.790;2022-12-18T09:57:19;102374.06;;;-3.63;89.61
39891;BME280;25564;53.312;9.790;2022-12-18T10:00:16;102391.31;;;-3.50;89.56
39891;BME280;25564;53.312;9.790;2022-12-18T10:02:51;102364.78;;;-3.59;89.62
39891;BME280;25564;53.312;9.790;2022-12-18T10:05:39;102399.91;;;-3.38;89.60
39891;BME280;25564;53.312;9.790;2022-12-18T10:10:57;102391.34;;;-3.23;90.09
39891;BME280;25564;53.312;9.790;2022-12-18T10:16:29;102399.88;;;-3.11;89.64
39891;BME280;25564;53.312;9.790;2022-12-18T10:22:07;102408.47;;;-2.99;89.83
39891;BME280;25564;53.312;9.790;2022-12-18T10:24:49;102413.25;;;-2.92;90.17
39891;BME280;25564;53.312;9.790;2022-12-18T10:27:25;102417.03;;;-2.87;89.74
39891;BME280;25564;53.312;9.790;2022-12-18T10:29:57;102392.75;;;-2.87;89.89
39891;BME280;25564;53.312;9.790;2022-12-18T10:32:30;102404.22;;;-2.71;89.63
39891;BME280;25564;53.312;9.790;2022-12-18T10:35:01;102391.22;;;-2.71;89.73
39891;BME280;25564;53.312;9.790;2022-12-18T10:37:33;102391.59;;;-2.65;90.32
39891;BME280;25564;53.312;9.790;2022-12-18T10:40:14;102405.66;;;-2.48;89.64
39891;BME280;25564;53.312;9.790;2022-12-18T10:43:05;102395.25;;;-2.48;89.70
39891;BME280;25564;53.312;9.790;2022-12-18T10:45:37;102394.66;;;-2.44;90.03
39891;BME280;25564;53.312;9.790;2022-12-18T10:48:19;102393.13;;;-2.40;89.68
39891;BME280;25564;53.312;9.790;2022-12-18T10:50:53;102392.53;;;-2.36;90.13
39891;BME280;25564;53.312;9.790;2022-12-18T10:53:52;102384.91;;;-2.33;90.21
39891;BME280;25564;53.312;9.790;2022-12-18T10:56:27;102384.19;;;-2.31;90.20
39891;BME280;25564;53.312;9.790;2022-12-18T10:59:07;102379.09;;;-2.29;89.81
39891;BME280;25564;53.312;9.790;2022-12-18T11:01:52;102378.28;;;-2.28;89.86
39891;BME280;25564;53.312;9.790;2022-12-18T11:04:30;102371.09;;;-2.32;89.75
39891;BME280;25564;53.312;9.790;2022-12-18T11:07:04;102374.25;;;-2.23;89.66
39891;BME280;25564;53.312;9.790;2022-12-18T11:09:39;102369.16;;;-2.21;89.41
39891;BME280;25564;53.312;9.790;2022-12-18T11:12:17;102366.66;;;-2.20;90.04
39891;BME280;25564;53.312;9.790;2022-12-18T11:14:51;102367.72;;;-2.16;90.09
39891;BME280;25564;53.312;9.790;2022-12-18T11:17:33;102367.19;;;-2.11;90.17
39891;BME280;25564;53.312;9.790;2022-12-18T11:20:29;102362.34;;;-2.05;89.35
39891;BME280;25564;53.312;9.790;2022-12-18T11:23:10;102355.34;;;-1.91;89.81
39891;BME280;25564;53.312;9.790;2022-12-18T11:25:51;102355.09;;;-1.81;89.60
39891;BME280;25564;53.312;9.790;2022-12-18T11:28:38;102348.88;;;-1.68;90.71
39891;BME280;25564;53.312;9.790;2022-12-18T11:31:19;102337.41;;;-1.57;89.68
39891;BME280;25564;53.312;9.790;2022-12-18T11:36:49;102334.03;;;-1.40;90.72
39891;BME280;25564;53.312;9.790;2022-12-18T11:39:40;102348.28;;;-1.18;90.92
39891;BME280;25564;53.312;9.790;2022-12-18T11:42:21;102342.78;;;-1.08;90.11
39891;BME280;25564;53.312;9.790;2022-12-18T11:45:03;102338.84;;;-1.00;90.34
39891;BME280;25564;53.312;9.790;2022-12-18T11:50:54;102324.44;;;-0.93;90.81
39891;BME280;25564;53.312;9.790;2022-12-18T11:53:27;102299.38;;;-1.08;90.03
39891;BME280;25564;53.312;9.790;2022-12-18T11:56:19;102322.66;;;-0.94;90.28
39891;BME280;25564;53.312;9.790;2022-12-18T11:59:26;102328.75;;;-0.94;89.93
39891;BME280;25564;53.312;9.790;2022-12-18T12:02:20;102333.06;;;-0.94;90.32
39891;BME280;25564;53.312;9.790;2022-12-18T12:05:51;102326.16;;;-0.94;89.65
39891;BME280;25564;53.312;9.790;2022-12-18T12:10:35;102323.88;;;-0.88;90.53
39891;BME280;25564;53.312;9.790;2022-12-18T12:13:32;102303.38;;;-0.82;89.71
39891;BME280;25564;53.312;9.790;2022-12-18T12:16:17;102300.59;;;-0.69;91.08
39891;BME280;25564;53.312;9.790;2022-12-18T12:21:31;102276.00;;;-0.57;90.71
39891;BME280;25564;53.312;9.790;2022-12-18T12:27:05;102247.66;;;-0.51;90.17
39891;BME280;25564;53.312;9.790;2022-12-18T12:30:07;102255.94;;;-0.42;90.79
39891;BME280;25564;53.312;9.790;2022-12-18T12:35:46;102236.78;;;-0.43;90.59
39891;BME280;25564;53.312;9.790;2022-12-18T12:38:27;102230.84;;;-0.40;90.34
39891;BME280;25564;53.312;9.790;2022-12-18T12:41:03;102228.94;;;-0.26;90.27
39891;BME280;25564;53.312;9.790;2022-12-18T12:43:43;102229.41;;;-0.17;90.69
39891;BME280;25564;53.312;9.790;2022-12-18T12:46:21;102221.78;;;-0.13;91.25
39891;BME280;25564;53.312;9.790;2022-12-18T12:48:58;102222.47;;;-0.17;90.49
39891;BME280;25564;53.312;9.790;2022-12-18T12:51:35;102235.06;;;-0.08;89.91
39891;BME280;25564;53.312;9.790;2022-12-18T12:54:17;102200.09;;;-0.29;90.32
39891;BME280;25564;53.312;9.790;2022-12-18T12:56:59;102201.28;;;-0.23;90.00
39891;BME280;25564;53.312;9.790;2022-12-18T12:59:41;102213.75;;;-0.17;90.59
39891;BME280;25564;53.312;9.790;2022-12-18T13:02:24;102229.09;;;-0.06;89.51
39891;BME280;25564;53.312;9.790;2022-12-18T13:05:23;102230.81;;;-0.06;89.53
39891;BME280;25564;53.312;9.790;2022-12-18T13:10:33;102239.25;;;-0.12;90.41
39891;BME280;25564;53.312;9.790;2022-12-18T13:13:10;102231.34;;;-0.13;89.90
39891;BME280;25564;53.312;9.790;2022-12-18T13:16:04;102220.66;;;-0.18;90.01
39891;BME280;25564;53.312;9.790;2022-12-18T13:18:37;102221.34;;;-0.22;89.83
39891;BME280;25564;53.312;9.790;2022-12-18T13:21:21;102203.88;;;-0.41;90.06
39891;BME280;25564;53.312;9.790;2022-12-18T13:23:56;102198.25;;;-0.48;89.55
39891;BME280;25564;53.312;9.790;2022-12-18T13:26:29;102188.91;;;-0.61;89.83
39891;BME280;25564;53.312;9.790;2022-12-18T13:29:02;102209.19;;;-0.55;90.14
39891;BME280;25564;53.312;9.790;2022-12-18T13:34:17;102211.25;;;-0.66;90.02
39891;BME280;25564;53.312;9.790;2022-12-18T13:37:36;102209.13;;;-0.73;89.90
39891;BME280;25564;53.312;9.790;2022-12-18T13:46:01;102213.78;;;-1.00;89.44
39891;BME280;25564;53.312;9.790;2022-12-18T13:48:36;102209.09;;;-1.07;88.76
39891;BME280;25564;53.312;9.790;2022-12-18T13:51:10;102195.59;;;-1.16;89.76
39891;BME280;25564;53.312;9.790;2022-12-18T13:53:50;102197.78;;;-1.24;88.74
39891;BME280;25564;53.312;9.790;2022-12-18T13:56:25;102201.75;;;-1.30;89.28
39891;BME280;25564;53.312;9.790;2022-12-18T13:59:18;102206.63;;;-1.37;88.70
39891;BME280;25564;53.312;9.790;2022-12-18T14:01:57;102214.19;;;-1.41;89.59
39891;BME280;25564;53.312;9.790;2022-12-18T14:04:34;102219.16;;;-1.46;88.66
39891;BME280;25564;53.312;9.790;2022-12-18T14:07:19;102214.50;;;-1.51;88.84
39891;BME280;25564;53.312;9.790;2022-12-18T14:09:56;102209.03;;;-1.56;89.32
39891;BME280;25564;53.312;9.790;2022-12-18T14:12:48;102205.84;;;-1.67;88.72
39891;BME280;25564;53.312;9.790;2022-12-18T14:15:40;102207.84;;;-1.77;88.79
39891;BME280;25564;53.312;9.790;2022-12-18T14:18:36;102199.63;;;-1.85;89.08
39891;BME280;25564;53.312;9.790;2022-12-18T14:21:22;102197.47;;;-1.92;88.77
39891;BME280;25564;53.312;9.790;2022-12-18T14:24:14;102186.72;;;-1.98;88.62
39891;BME280;25564;53.312;9.790;2022-12-18T14:26:50;102186.56;;;-2.01;89.52
39891;BME280;25564;53.312;9.790;2022-12-18T14:29:28;102186.38;;;-2.04;89.73
39891;BME280;25564;53.312;9.790;2022-12-18T14:34:35;102172.63;;;-2.18;89.01
39891;BME280;25564;53.312;9.790;2022-12-18T14:37:10;102178.97;;;-2.13;89.10